sensor_id;sensor_type;location;lat;lon;timestamp;P1;durP1;ratioP1;P2;durP2;ratioP2
14048;SDS011;7099;53.922;10.728;2023-03-19T00:00:46;20.77;;;15.40;;
14048;SDS011;7099;53.922;10.728;2023-03-19T00:04:52;24.30;;;15.83;;
14048;SDS011;7099;53.922;10.728;2023-03-19T00:08:57;23.73;;;14.93;;
14048;SDS011;7099;53.922;10.728;2023-03-19T00:13:03;17.77;;;13.43;;
14048;SDS011;7099;53.922;10.728;2023-03-19T00:17:08;25.83;;;16.30;;
14048;SDS011;7099;53.922;10.728;2023-03-19T00:21:15;23.67;;;16.27;;
14048;SDS011;7099;53.922;10.728;2023-03-19T00:25:20;26.50;;;16.80;;
14048;SDS011;7099;53.922;10.728;2023-03-19T00:29:26;24.00;;;16.43;;
14048;SDS011;7099;53.922;10.728;2023-03-19T00:33:32;22.40;;;15.20;;
14048;SDS011;7099;53.922;10.728;2023-03-19T00:37:37;22.73;;;14.90;;
14048;SDS011;7099;53.922;10.728;2023-03-19T00:41:43;20.90;;;14.90;;
14048;SDS011;7099;53.922;10.728;2023-03-19T00:45:54;24.93;;;15.93;;
14048;SDS011;7099;53.922;10.728;2023-03-19T00:50:00;22.40;;;15.13;;
14048;SDS011;7099;53.922;10.728;2023-03-19T00:54:06;23.47;;;14.40;;
14048;SDS011;7099;53.922;10.728;2023-03-19T00:58:11;23.97;;;15.07;;
14048;SDS011;7099;53.922;10.728;2023-03-19T01:02:17;26.40;;;17.00;;
14048;SDS011;7099;53.922;10.728;2023-03-19T01:06:22;25.30;;;16.13;;
14048;SDS011;7099;53.922;10.728;2023-03-19T01:10:28;25.60;;;16.53;;
14048;SDS011;7099;53.922;10.728;2023-03-19T01:14:37;25.73;;;16.73;;
14048;SDS011;7099;53.922;10.728;2023-03-19T01:18:43;27.47;;;17.43;;
14048;SDS011;7099;53.922;10.728;2023-03-19T01:22:49;27.07;;;16.50;;
14048;SDS011;7099;53.922;10.728;2023-03-19T01:26:55;29.80;;;15.30;;
14048;SDS011;7099;53.922;10.728;2023-03-19T01:31:01;25.87;;;18.17;;
14048;SDS011;7099;53.922;10.728;2023-03-19T01:35:12;23.90;;;16.67;;
14048;SDS011;7099;53.922;10.728;2023-03-19T01:39:17;22.13;;;15.83;;
14048;SDS011;7099;53.922;10.728;2023-03-19T01:43:24;25.73;;;15.70;;
14048;SDS011;7099;53.922;10.728;2023-03-19T01:47:33;24.97;;;17.77;;
14048;SDS011;7099;53.922;10.728;2023-03-19T01:51:42;24.40;;;17.43;;
14048;SDS011;7099;53.922;10.728;2023-03-19T01:55:51;26.60;;;17.90;;
14048;SDS011;7099;53.922;10.728;2023-03-19T02:00:03;26.50;;;17.10;;
14048;SDS011;7099;53.922;10.728;2023-03-19T02:04:11;24.43;;;17.07;;
14048;SDS011;7099;53.922;10.728;2023-03-19T02:08:19;22.27;;;16.20;;
14048;SDS011;7099;53.922;10.728;2023-03-19T02:12:27;27.17;;;17.23;;
14048;SDS011;7099;53.922;10.728;2023-03-19T02:16:33;24.67;;;17.07;;
14048;SDS011;7099;53.922;10.728;2023-03-19T02:20:42;24.53;;;16.63;;
14048;SDS011;7099;53.922;10.728;2023-03-19T02:25:05;22.23;;;16.37;;
14048;SDS011;7099;53.922;10.728;2023-03-19T02:29:19;30.13;;;18.73;;
14048;SDS011;7099;53.922;10.728;2023-03-19T02:33:24;26.40;;;16.60;;
14048;SDS011;7099;53.922;10.728;2023-03-19T02:37:31;25.00;;;16.47;;
14048;SDS011;7099;53.922;10.728;2023-03-19T02:41:37;27.73;;;19.20;;
14048;SDS011;7099;53.922;10.728;2023-03-19T02:45:45;28.23;;;19.43;;
14048;SDS011;7099;53.922;10.728;2023-03-19T02:49:52;36.07;;;20.13;;
14048;SDS011;7099;53.922;10.728;2023-03-19T02:53:58;35.43;;;22.27;;
14048;SDS011;7099;53.922;10.728;2023-03-19T02:58:05;33.00;;;21.47;;
14048;SDS011;7099;53.922;10.728;2023-03-19T03:02:12;38.50;;;23.10;;
14048;SDS011;7099;53.922;10.728;2023-03-19T03:06:18;34.70;;;20.63;;
14048;SDS011;7099;53.922;10.728;2023-03-19T03:10:23;32.73;;;21.93;;
14048;SDS011;7099;53.922;10.728;2023-03-19T03:14:29;35.30;;;21.73;;
14048;SDS011;7099;53.922;10.728;2023-03-19T03:18:34;35.17;;;23.07;;
14048;SDS011;7099;53.922;10.728;2023-03-19T03:22:40;30.60;;;20.20;;
14048;SDS011;7099;53.922;10.728;2023-03-19T03:26:46;33.37;;;22.30;;
14048;SDS011;7099;53.922;10.728;2023-03-19T03:30:57;29.80;;;19.83;;
14048;SDS011;7099;53.922;10.728;2023-03-19T03:35:04;29.73;;;19.27;;
14048;SDS011;7099;53.922;10.728;2023-03-19T03:39:12;27.40;;;19.57;;
14048;SDS011;7099;53.922;10.728;2023-03-19T03:43:19;28.97;;;19.00;;
14048;SDS011;7099;53.922;10.728;2023-03-19T03:47:28;29.90;;;19.93;;
14048;SDS011;7099;53.922;10.728;2023-03-19T03:51:34;30.53;;;20.27;;
14048;SDS011;7099;53.922;10.728;2023-03-19T03:55:40;30.17;;;20.10;;
14048;SDS011;7099;53.922;10.728;2023-03-19T03:59:48;30.83;;;18.30;;
14048;SDS011;7099;53.922;10.728;2023-03-19T04:03:54;29.67;;;19.47;;
14048;SDS011;7099;53.922;10.728;2023-03-19T04:08:00;32.30;;;20.67;;
14048;SDS011;7099;53.922;10.728;2023-03-19T04:12:07;33.37;;;21.90;;
14048;SDS011;7099;53.922;10.728;2023-03-19T04:16:13;35.20;;;22.17;;
14048;SDS011;7099;53.922;10.728;2023-03-19T04:20:20;32.30;;;21.43;;
14048;SDS011;7099;53.922;10.728;2023-03-19T04:24:27;33.83;;;21.13;;
14048;SDS011;7099;53.922;10.728;2023-03-19T04:28:34;37.63;;;22.33;;
14048;SDS011;7099;53.922;10.728;2023-03-19T04:32:40;32.83;;;20.43;;
14048;SDS011;7099;53.922;10.728;2023-03-19T04:36:48;35.60;;;21.67;;
14048;SDS011;7099;53.922;10.728;2023-03-19T04:40:55;34.27;;;21.90;;
14048;SDS011;7099;53.922;10.728;2023-03-19T04:45:03;36.10;;;21.40;;
14048;SDS011;7099;53.922;10.728;2023-03-19T04:49:10;34.43;;;20.67;;
14048;SDS011;7099;53.922;10.728;2023-03-19T04:53:16;35.10;;;21.47;;
14048;SDS011;7099;53.922;10.728;2023-03-19T04:57:24;41.47;;;22.23;;
14048;SDS011;7099;53.922;10.728;2023-03-19T05:01:31;35.77;;;22.40;;
14048;SDS011;7099;53.922;10.728;2023-03-19T05:05:36;38.73;;;22.90;;
14048;SDS011;7099;53.922;10.728;2023-03-19T05:09:42;33.90;;;20.93;;
14048;SDS011;7099;53.922;10.728;2023-03-19T05:13:50;34.73;;;21.10;;
14048;SDS011;7099;53.922;10.728;2023-03-19T05:17:56;33.17;;;21.63;;
14048;SDS011;7099;53.922;10.728;2023-03-19T05:22:01;38.83;;;21.97;;
14048;SDS011;7099;53.922;10.728;2023-03-19T05:26:08;33.53;;;20.03;;
14048;SDS011;7099;53.922;10.728;2023-03-19T05:30:15;28.70;;;19.63;;
14048;SDS011;7099;53.922;10.728;2023-03-19T05:34:24;33.90;;;20.57;;
14048;SDS011;7099;53.922;10.728;2023-03-19T05:38:30;28.03;;;19.17;;
14048;SDS011;7099;53.922;10.728;2023-03-19T05:42:38;28.37;;;19.50;;
14048;SDS011;7099;53.922;10.728;2023-03-19T05:46:44;30.80;;;20.50;;
14048;SDS011;7099;53.922;10.728;2023-03-19T05:50:50;29.30;;;19.83;;
14048;SDS011;7099;53.922;10.728;2023-03-19T05:54:58;31.07;;;19.50;;
14048;SDS011;7099;53.922;10.728;2023-03-19T05:59:04;30.47;;;19.53;;
14048;SDS011;7099;53.922;10.728;2023-03-19T06:03:12;31.47;;;19.27;;
14048;SDS011;7099;53.922;10.728;2023-03-19T06:07:19;31.20;;;19.33;;
14048;SDS011;7099;53.922;10.728;2023-03-19T06:11:25;27.27;;;18.60;;
14048;SDS011;7099;53.922;10.728;2023-03-19T06:15:31;29.97;;;20.57;;
14048;SDS011;7099;53.922;10.728;2023-03-19T06:19:37;31.57;;;21.50;;
14048;SDS011;7099;53.922;10.728;2023-03-19T06:23:43;32.07;;;21.00;;
14048;SDS011;7099;53.922;10.728;2023-03-19T06:27:49;33.17;;;20.40;;
14048;SDS011;7099;53.922;10.728;2023-03-19T06:31:54;39.57;;;21.50;;
14048;SDS011;7099;53.922;10.728;2023-03-19T06:36:02;36.23;;;20.57;;
14048;SDS011;7099;53.922;10.728;2023-03-19T06:40:08;34.30;;;20.60;;
14048;SDS011;7099;53.922;10.728;2023-03-19T06:44:15;30.87;;;19.73;;
14048;SDS011;7099;53.922;10.728;2023-03-19T06:48:21;33.90;;;20.10;;
14048;SDS011;7099;53.922;10.728;2023-03-19T06:52:28;31.00;;;19.60;;
14048;SDS011;7099;53.922;10.728;2023-03-19T06:56:34;35.07;;;22.17;;
14048;SDS011;7099;53.922;10.728;2023-03-19T07:00:40;29.30;;;18.87;;
14048;SDS011;7099;53.922;10.728;2023-03-19T07:04:45;31.47;;;20.40;;
14048;SDS011;7099;53.922;10.728;2023-03-19T07:08:53;35.33;;;21.20;;
14048;SDS011;7099;53.922;10.728;2023-03-19T07:13:00;35.00;;;21.10;;
14048;SDS011;7099;53.922;10.728;2023-03-19T07:17:05;35.37;;;22.20;;
14048;SDS011;7099;53.922;10.728;2023-03-19T07:21:14;37.10;;;21.57;;
14048;SDS011;7099;53.922;10.728;2023-03-19T07:25:20;35.00;;;21.77;;
14048;SDS011;7099;53.922;10.728;2023-03-19T07:29:26;35.90;;;22.23;;
14048;SDS011;7099;53.922;10.728;2023-03-19T07:33:32;34.93;;;22.33;;
14048;SDS011;7099;53.922;10.728;2023-03-19T07:37:38;38.73;;;22.90;;
14048;SDS011;7099;53.922;10.728;2023-03-19T07:41:44;33.20;;;21.10;;
14048;SDS011;7099;53.922;10.728;2023-03-19T07:45:54;32.50;;;20.90;;
14048;SDS011;7099;53.922;10.728;2023-03-19T07:50:00;28.10;;;18.33;;
14048;SDS011;7099;53.922;10.728;2023-03-19T07:54:08;29.67;;;18.70;;
14048;SDS011;7099;53.922;10.728;2023-03-19T07:58:14;23.93;;;17.30;;
14048;SDS011;7099;53.922;10.728;2023-03-19T08:02:21;19.73;;;14.67;;
14048;SDS011;7099;53.922;10.728;2023-03-19T08:06:27;20.20;;;14.60;;
14048;SDS011;7099;53.922;10.728;2023-03-19T08:10:33;16.80;;;13.67;;
14048;SDS011;7099;53.922;10.728;2023-03-19T08:14:41;15.50;;;11.00;;
14048;SDS011;7099;53.922;10.728;2023-03-19T08:18:47;16.07;;;11.87;;
14048;SDS011;7099;53.922;10.728;2023-03-19T08:22:56;17.77;;;10.83;;
14048;SDS011;7099;53.922;10.728;2023-03-19T08:27:02;12.73;;;10.27;;
14048;SDS011;7099;53.922;10.728;2023-03-19T08:31:08;11.63;;;9.13;;
14048;SDS011;7099;53.922;10.728;2023-03-19T08:35:17;10.63;;;8.33;;
14048;SDS011;7099;53.922;10.728;2023-03-19T08:39:23;17.83;;;8.77;;
14048;SDS011;7099;53.922;10.728;2023-03-19T08:43:30;10.87;;;6.87;;
14048;SDS011;7099;53.922;10.728;2023-03-19T08:47:37;11.93;;;7.80;;
14048;SDS011;7099;53.922;10.728;2023-03-19T08:51:44;12.07;;;7.13;;
14048;SDS011;7099;53.922;10.728;2023-03-19T08:55:58;9.00;;;7.27;;
14048;SDS011;7099;53.922;10.728;2023-03-19T09:00:06;12.60;;;7.70;;
14048;SDS011;7099;53.922;10.728;2023-03-19T09:04:13;8.33;;;6.70;;
14048;SDS011;7099;53.922;10.728;2023-03-19T09:08:19;12.23;;;6.43;;
14048;SDS011;7099;53.922;10.728;2023-03-19T09:12:24;12.20;;;6.73;;
14048;SDS011;7099;53.922;10.728;2023-03-19T09:16:31;9.63;;;6.40;;
14048;SDS011;7099;53.922;10.728;2023-03-19T09:20:36;8.63;;;5.63;;
14048;SDS011;7099;53.922;10.728;2023-03-19T09:24:42;8.37;;;6.27;;
14048;SDS011;7099;53.922;10.728;2023-03-19T09:28:48;8.97;;;5.90;;
14048;SDS011;7099;53.922;10.728;2023-03-19T09:32:56;7.50;;;5.90;;
14048;SDS011;7099;53.922;10.728;2023-03-19T09:37:02;8.50;;;6.57;;
14048;SDS011;7099;53.922;10.728;2023-03-19T09:46:21;9.47;;;6.10;;
14048;SDS011;7099;53.922;10.728;2023-03-19T09:50:34;8.23;;;6.17;;
14048;SDS011;7099;53.922;10.728;2023-03-19T09:54:44;8.70;;;6.23;;
14048;SDS011;7099;53.922;10.728;2023-03-19T09:58:52;6.83;;;5.80;;
14048;SDS011;7099;53.922;10.728;2023-03-19T10:08:24;8.97;;;5.47;;
14048;SDS011;7099;53.922;10.728;2023-03-19T10:17:03;7.60;;;5.80;;
14048;SDS011;7099;53.922;10.728;2023-03-19T10:21:21;9.23;;;6.17;;
14048;SDS011;7099;53.922;10.728;2023-03-19T10:25:38;8.53;;;5.97;;
14048;SDS011;7099;53.922;10.728;2023-03-19T10:29:46;7.10;;;5.73;;
14048;SDS011;7099;53.922;10.728;2023-03-19T10:38:22;7.20;;;5.83;;
14048;SDS011;7099;53.922;10.728;2023-03-19T10:42:33;11.80;;;6.30;;
14048;SDS011;7099;53.922;10.728;2023-03-19T10:47:10;8.43;;;6.57;;
14048;SDS011;7099;53.922;10.728;2023-03-19T10:51:21;10.03;;;6.53;;
14048;SDS011;7099;53.922;10.728;2023-03-19T10:55:30;9.67;;;6.10;;
14048;SDS011;7099;53.922;10.728;2023-03-19T10:59:36;8.30;;;6.17;;
14048;SDS011;7099;53.922;10.728;2023-03-19T11:03:49;9.00;;;5.33;;
14048;SDS011;7099;53.922;10.728;2023-03-19T11:08:04;10.30;;;5.73;;
14048;SDS011;7099;53.922;10.728;2023-03-19T11:12:38;10.63;;;5.23;;
14048;SDS011;7099;53.922;10.728;2023-03-19T11:21:21;8.20;;;4.53;;
14048;SDS011;7099;53.922;10.728;2023-03-19T11:25:36;4.97;;;4.37;;
14048;SDS011;7099;53.922;10.728;2023-03-19T11:29:56;11.33;;;4.77;;
14048;SDS011;7099;53.922;10.728;2023-03-19T11:34:17;6.70;;;4.20;;
14048;SDS011;7099;53.922;10.728;2023-03-19T11:38:51;7.40;;;3.63;;
14048;SDS011;7099;53.922;10.728;2023-03-19T11:47:51;5.63;;;3.80;;
14048;SDS011;7099;53.922;10.728;2023-03-19T11:52:22;7.20;;;3.80;;
14048;SDS011;7099;53.922;10.728;2023-03-19T11:56:43;8.00;;;3.37;;
14048;SDS011;7099;53.922;10.728;2023-03-19T12:01:05;7.60;;;3.37;;
14048;SDS011;7099;53.922;10.728;2023-03-19T12:05:59;5.40;;;3.40;;
14048;SDS011;7099;53.922;10.728;2023-03-19T12:15:34;7.33;;;4.07;;
14048;SDS011;7099;53.922;10.728;2023-03-19T12:20:19;5.03;;;3.37;;
14048;SDS011;7099;53.922;10.728;2023-03-19T12:24:53;4.77;;;3.50;;
14048;SDS011;7099;53.922;10.728;2023-03-19T12:29:19;4.50;;;3.63;;
14048;SDS011;7099;53.922;10.728;2023-03-19T12:39:14;6.07;;;3.60;;
14048;SDS011;7099;53.922;10.728;2023-03-19T12:48:11;4.00;;;3.60;;
14048;SDS011;7099;53.922;10.728;2023-03-19T13:01:18;3.93;;;2.80;;
14048;SDS011;7099;53.922;10.728;2023-03-19T13:10:05;6.30;;;3.40;;
14048;SDS011;7099;53.922;10.728;2023-03-19T13:23:35;4.60;;;2.97;;
14048;SDS011;7099;53.922;10.728;2023-03-19T13:27:42;4.57;;;3.67;;
14048;SDS011;7099;53.922;10.728;2023-03-19T13:32:04;5.40;;;4.00;;
14048;SDS011;7099;53.922;10.728;2023-03-19T13:36:29;3.37;;;2.80;;
14048;SDS011;7099;53.922;10.728;2023-03-19T13:40:42;3.83;;;3.03;;
14048;SDS011;7099;53.922;10.728;2023-03-19T13:49:34;4.60;;;3.57;;
14048;SDS011;7099;53.922;10.728;2023-03-19T13:53:41;6.43;;;3.70;;
14048;SDS011;7099;53.922;10.728;2023-03-19T14:02:44;5.83;;;3.43;;
14048;SDS011;7099;53.922;10.728;2023-03-19T14:06:52;7.00;;;3.63;;
14048;SDS011;7099;53.922;10.728;2023-03-19T14:11:01;10.77;;;5.20;;
14048;SDS011;7099;53.922;10.728;2023-03-19T14:19:21;11.70;;;5.97;;
14048;SDS011;7099;53.922;10.728;2023-03-19T14:23:28;10.30;;;5.47;;
14048;SDS011;7099;53.922;10.728;2023-03-19T14:27:53;7.47;;;5.30;;
14048;SDS011;7099;53.922;10.728;2023-03-19T14:32:05;11.00;;;6.30;;
14048;SDS011;7099;53.922;10.728;2023-03-19T14:36:16;8.60;;;5.37;;
14048;SDS011;7099;53.922;10.728;2023-03-19T14:40:28;8.67;;;5.57;;
14048;SDS011;7099;53.922;10.728;2023-03-19T14:53:54;5.60;;;4.63;;
14048;SDS011;7099;53.922;10.728;2023-03-19T14:58:25;7.43;;;4.63;;
14048;SDS011;7099;53.922;10.728;2023-03-19T15:02:43;5.77;;;5.00;;
14048;SDS011;7099;53.922;10.728;2023-03-19T15:06:57;5.97;;;5.00;;
14048;SDS011;7099;53.922;10.728;2023-03-19T15:20:34;9.30;;;6.90;;
14048;SDS011;7099;53.922;10.728;2023-03-19T15:24:54;8.30;;;5.50;;
14048;SDS011;7099;53.922;10.728;2023-03-19T15:29:28;8.73;;;6.07;;
14048;SDS011;7099;53.922;10.728;2023-03-19T15:33:38;6.90;;;6.17;;
14048;SDS011;7099;53.922;10.728;2023-03-19T15:37:50;8.20;;;6.23;;
14048;SDS011;7099;53.922;10.728;2023-03-19T15:42:05;8.47;;;5.27;;
14048;SDS011;7099;53.922;10.728;2023-03-19T15:46:14;7.50;;;5.43;;
14048;SDS011;7099;53.922;10.728;2023-03-19T15:50:27;8.77;;;5.97;;
14048;SDS011;7099;53.922;10.728;2023-03-19T15:54:39;7.77;;;5.50;;
14048;SDS011;7099;53.922;10.728;2023-03-19T15:58:47;14.00;;;6.47;;
14048;SDS011;7099;53.922;10.728;2023-03-19T16:02:57;9.57;;;7.20;;
14048;SDS011;7099;53.922;10.728;2023-03-19T16:07:04;9.77;;;7.40;;
14048;SDS011;7099;53.922;10.728;2023-03-19T16:11:29;11.83;;;7.60;;
14048;SDS011;7099;53.922;10.728;2023-03-19T16:15:43;10.40;;;7.30;;
14048;SDS011;7099;53.922;10.728;2023-03-19T16:19:52;11.00;;;7.00;;
14048;SDS011;7099;53.922;10.728;2023-03-19T16:28:40;7.90;;;6.80;;
14048;SDS011;7099;53.922;10.728;2023-03-19T16:33:03;10.13;;;7.20;;
14048;SDS011;7099;53.922;10.728;2023-03-19T16:42:12;9.37;;;6.50;;
14048;SDS011;7099;53.922;10.728;2023-03-19T16:46:15;9.17;;;6.73;;
14048;SDS011;7099;53.922;10.728;2023-03-19T16:50:21;10.87;;;7.07;;
14048;SDS011;7099;53.922;10.728;2023-03-19T16:54:33;9.17;;;6.93;;
14048;SDS011;7099;53.922;10.728;2023-03-19T16:58:41;13.57;;;8.37;;
14048;SDS011;7099;53.922;10.728;2023-03-19T17:02:52;8.93;;;7.80;;
14048;SDS011;7099;53.922;10.728;2023-03-19T17:07:02;8.50;;;7.60;;
14048;SDS011;7099;53.922;10.728;2023-03-19T17:11:20;11.33;;;8.77;;
14048;SDS011;7099;53.922;10.728;2023-03-19T17:15:36;12.13;;;9.50;;
14048;SDS011;7099;53.922;10.728;2023-03-19T17:19:44;15.33;;;10.00;;
14048;SDS011;7099;53.922;10.728;2023-03-19T17:23:51;15.87;;;9.23;;
14048;SDS011;7099;53.922;10.728;2023-03-19T17:27:57;16.60;;;9.83;;
14048;SDS011;7099;53.922;10.728;2023-03-19T17:32:03;12.53;;;9.67;;
14048;SDS011;7099;53.922;10.728;2023-03-19T17:36:11;12.97;;;8.87;;
14048;SDS011;7099;53.922;10.728;2023-03-19T17:40:23;22.77;;;11.30;;
14048;SDS011;7099;53.922;10.728;2023-03-19T17:44:32;15.37;;;11.70;;
14048;SDS011;7099;53.922;10.728;2023-03-19T17:48:37;22.43;;;14.47;;
14048;SDS011;7099;53.922;10.728;2023-03-19T17:52:44;14.53;;;12.60;;
14048;SDS011;7099;53.922;10.728;2023-03-19T17:56:52;15.00;;;12.60;;
14048;SDS011;7099;53.922;10.728;2023-03-19T18:01:00;16.00;;;12.93;;
14048;SDS011;7099;53.922;10.728;2023-03-19T18:05:13;15.90;;;12.30;;
14048;SDS011;7099;53.922;10.728;2023-03-19T18:09:29;23.50;;;12.67;;
14048;SDS011;7099;53.922;10.728;2023-03-19T18:13:36;15.63;;;12.20;;
14048;SDS011;7099;53.922;10.728;2023-03-19T18:17:45;16.97;;;12.00;;
14048;SDS011;7099;53.922;10.728;2023-03-19T18:21:54;20.50;;;16.30;;
14048;SDS011;7099;53.922;10.728;2023-03-19T18:26:01;23.17;;;17.33;;
14048;SDS011;7099;53.922;10.728;2023-03-19T18:30:08;23.47;;;16.43;;
14048;SDS011;7099;53.922;10.728;2023-03-19T18:34:16;19.80;;;15.33;;
14048;SDS011;7099;53.922;10.728;2023-03-19T18:38:24;24.57;;;16.23;;
14048;SDS011;7099;53.922;10.728;2023-03-19T18:42:30;24.30;;;15.63;;
14048;SDS011;7099;53.922;10.728;2023-03-19T18:46:36;22.23;;;17.13;;
14048;SDS011;7099;53.922;10.728;2023-03-19T18:50:43;24.20;;;16.27;;
14048;SDS011;7099;53.922;10.728;2023-03-19T18:54:51;19.87;;;15.70;;
14048;SDS011;7099;53.922;10.728;2023-03-19T18:58:57;17.90;;;14.90;;
14048;SDS011;7099;53.922;10.728;2023-03-19T19:03:04;21.80;;;16.50;;
14048;SDS011;7099;53.922;10.728;2023-03-19T19:07:12;22.70;;;17.97;;
14048;SDS011;7099;53.922;10.728;2023-03-19T19:11:20;23.47;;;15.70;;
14048;SDS011;7099;53.922;10.728;2023-03-19T19:15:32;21.20;;;17.00;;
14048;SDS011;7099;53.922;10.728;2023-03-19T19:19:40;22.53;;;16.50;;
14048;SDS011;7099;53.922;10.728;2023-03-19T19:23:47;18.57;;;14.60;;
14048;SDS011;7099;53.922;10.728;2023-03-19T19:28:00;19.27;;;15.47;;
14048;SDS011;7099;53.922;10.728;2023-03-19T19:32:38;19.30;;;15.63;;
14048;SDS011;7099;53.922;10.728;2023-03-19T19:36:45;17.60;;;14.23;;
14048;SDS011;7099;53.922;10.728;2023-03-19T19:40:54;19.40;;;14.37;;
14048;SDS011;7099;53.922;10.728;2023-03-19T19:45:06;15.20;;;12.63;;
14048;SDS011;7099;53.922;10.728;2023-03-19T19:49:42;13.50;;;11.70;;
14048;SDS011;7099;53.922;10.728;2023-03-19T19:53:49;20.70;;;12.70;;
14048;SDS011;7099;53.922;10.728;2023-03-19T19:57:55;12.20;;;10.13;;
14048;SDS011;7099;53.922;10.728;2023-03-19T20:02:10;10.17;;;9.10;;
14048;SDS011;7099;53.922;10.728;2023-03-19T20:06:24;14.53;;;11.57;;
14048;SDS011;7099;53.922;10.728;2023-03-19T20:10:30;15.50;;;11.80;;
14048;SDS011;7099;53.922;10.728;2023-03-19T20:14:36;19.27;;;13.87;;
14048;SDS011;7099;53.922;10.728;2023-03-19T20:18:42;14.50;;;11.47;;
14048;SDS011;7099;53.922;10.728;2023-03-19T20:22:50;12.07;;;10.00;;
14048;SDS011;7099;53.922;10.728;2023-03-19T20:26:56;19.07;;;14.70;;
14048;SDS011;7099;53.922;10.728;2023-03-19T20:31:05;16.73;;;12.53;;
14048;SDS011;7099;53.922;10.728;2023-03-19T20:35:15;9.27;;;8.27;;
14048;SDS011;7099;53.922;10.728;2023-03-19T20:39:24;10.73;;;8.77;;
14048;SDS011;7099;53.922;10.728;2023-03-19T20:43:33;10.87;;;8.20;;
14048;SDS011;7099;53.922;10.728;2023-03-19T20:47:41;10.70;;;8.93;;
14048;SDS011;7099;53.922;10.728;2023-03-19T20:51:47;28.33;;;9.33;;
14048;SDS011;7099;53.922;10.728;2023-03-19T20:55:53;14.33;;;10.57;;
14048;SDS011;7099;53.922;10.728;2023-03-19T21:00:09;11.53;;;9.87;;
14048;SDS011;7099;53.922;10.728;2023-03-19T21:04:28;10.07;;;8.07;;
14048;SDS011;7099;53.922;10.728;2023-03-19T21:08:35;11.70;;;7.50;;
14048;SDS011;7099;53.922;10.728;2023-03-19T21:12:48;17.10;;;12.90;;
14048;SDS011;7099;53.922;10.728;2023-03-19T21:16:54;21.30;;;11.40;;
14048;SDS011;7099;53.922;10.728;2023-03-19T21:21:00;16.83;;;12.23;;
14048;SDS011;7099;53.922;10.728;2023-03-19T21:25:07;19.97;;;14.00;;
14048;SDS011;7099;53.922;10.728;2023-03-19T21:29:28;23.87;;;9.23;;
14048;SDS011;7099;53.922;10.728;2023-03-19T21:33:36;96.63;;;8.43;;
14048;SDS011;7099;53.922;10.728;2023-03-19T21:37:43;43.80;;;8.90;;
14048;SDS011;7099;53.922;10.728;2023-03-19T21:41:49;63.23;;;12.47;;
14048;SDS011;7099;53.922;10.728;2023-03-19T21:45:55;36.63;;;12.30;;
14048;SDS011;7099;53.922;10.728;2023-03-19T21:50:01;30.40;;;19.10;;
14048;SDS011;7099;53.922;10.728;2023-03-19T21:54:07;39.67;;;20.70;;
14048;SDS011;7099;53.922;10.728;2023-03-19T21:58:13;37.50;;;21.90;;
14048;SDS011;7099;53.922;10.728;2023-03-19T22:06:30;44.33;;;24.13;;
14048;SDS011;7099;53.922;10.728;2023-03-19T22:10:36;45.83;;;24.93;;
14048;SDS011;7099;53.922;10.728;2023-03-19T22:14:42;57.03;;;25.50;;
14048;SDS011;7099;53.922;10.728;2023-03-19T22:18:48;55.73;;;28.03;;
14048;SDS011;7099;53.922;10.728;2023-03-19T22:22:55;57.40;;;27.73;;
14048;SDS011;7099;53.922;10.728;2023-03-19T22:27:03;60.53;;;27.87;;
14048;SDS011;7099;53.922;10.728;2023-03-19T22:31:08;63.27;;;28.37;;
14048;SDS011;7099;53.922;10.728;2023-03-19T22:35:15;66.47;;;29.77;;
14048;SDS011;7099;53.922;10.728;2023-03-19T22:39:23;72.27;;;29.27;;
14048;SDS011;7099;53.922;10.728;2023-03-19T22:43:29;57.17;;;26.47;;
14048;SDS011;7099;53.922;10.728;2023-03-19T22:47:41;51.70;;;26.73;;
14048;SDS011;7099;53.922;10.728;2023-03-19T22:51:47;45.00;;;24.77;;
14048;SDS011;7099;53.922;10.728;2023-03-19T22:55:57;35.97;;;20.30;;
14048;SDS011;7099;53.922;10.728;2023-03-19T23:00:07;38.63;;;22.07;;
14048;SDS011;7099;53.922;10.728;2023-03-19T23:04:25;38.90;;;22.87;;
14048;SDS011;7099;53.922;10.728;2023-03-19T23:08:33;42.10;;;21.90;;
14048;SDS011;7099;53.922;10.728;2023-03-19T23:12:38;38.73;;;21.07;;
14048;SDS011;7099;53.922;10.728;2023-03-19T23:16:46;36.57;;;20.10;;
14048;SDS011;7099;53.922;10.728;2023-03-19T23:20:54;32.07;;;16.73;;
14048;SDS011;7099;53.922;10.728;2023-03-19T23:25:00;27.97;;;16.83;;
14048;SDS011;7099;53.922;10.728;2023-03-19T23:29:16;28.87;;;14.73;;
14048;SDS011;7099;53.922;10.728;2023-03-19T23:33:28;30.17;;;14.57;;
14048;SDS011;7099;53.922;10.728;2023-03-19T23:37:33;23.33;;;13.17;;
14048;SDS011;7099;53.922;10.728;2023-03-19T23:41:42;18.77;;;11.63;;
14048;SDS011;7099;53.922;10.728;2023-03-19T23:45:52;20.50;;;11.77;;
14048;SDS011;7099;53.922;10.728;2023-03-19T23:50:12;19.30;;;10.20;;
14048;SDS011;7099;53.922;10.728;2023-03-19T23:54:26;17.73;;;11.00;;
14048;SDS011;7099;53.922;10.728;2023-03-19T23:58:39;17.10;;;9.80;;
